createdAt,value
2023-05-05T00:18:19.913Z,16.48
2023-05-05T00:47:15.853Z,16.32
2023-05-05T01:16:10.349Z,16.13
2023-05-05T01:45:06.017Z,15.87
2023-05-05T02:14:09.843Z,15.82
2023-05-05T02:43:11.005Z,15.93
2023-05-05T03:12:05.720Z,15.97
2023-05-05T03:41:12.042Z,16.15
2023-05-05T04:10:16.235Z,16.56
2023-05-05T04:39:21.904Z,16.97
2023-05-05T05:08:18.820Z,16.29
2023-05-05T05:37:28.058Z,17.28
2023-05-05T06:06:23.052Z,16.74
2023-05-05T06:35:28.748Z,16.89
2023-05-05T07:04:30.140Z,17.97
2023-05-05T07:33:17.544Z,17.17
2023-05-05T08:02:11.790Z,17.14
2023-05-05T08:31:12.113Z,18.22
2023-05-05T09:00:05.659Z,18.65
2023-05-05T09:29:25.385Z,21.12
2023-05-05T09:58:34.321Z,22.15
2023-05-05T10:27:13.221Z,22.17
2023-05-05T10:56:28.036Z,23.97
2023-05-05T11:25:02.628Z,22.5
2023-05-05T11:54:23.089Z,24.78
2023-05-05T12:23:09.852Z,23.86
2023-05-05T12:51:49.579Z,22.88
2023-05-05T13:20:47.705Z,21.77
2023-05-05T13:49:45.230Z,22.02
2023-05-05T14:18:17.317Z,20.86
2023-05-05T14:46:56.828Z,18.77
2023-05-05T15:15:46.563Z,18.18
2023-05-05T15:44:26.007Z,17.33
2023-05-05T16:13:18.667Z,17.34
2023-05-05T16:42:01.532Z,17.93
2023-05-05T17:10:55.700Z,18.18
2023-05-05T17:39:38.078Z,17.82
2023-05-05T18:08:38.661Z,17.51
2023-05-05T18:37:30.192Z,17.33
2023-05-05T19:05:40.962Z,16.85
2023-05-05T19:34:03.277Z,16.86
2023-05-05T20:02:16.346Z,16.02
2023-05-05T20:30:31.183Z,15.96
2023-05-05T20:58:51.362Z,15.84
2023-05-05T21:27:16.529Z,15.82
2023-05-05T21:55:36.122Z,15.73
2023-05-05T22:23:52.420Z,15.59
2023-05-05T22:52:15.556Z,15.61
2023-05-05T23:20:32.112Z,14.92
2023-05-05T23:48:55.293Z,15.04
